Newberry, SC

12:27 PM EST on February 27, 2017 (GMT -0500)
Newberry

Weather History for KEOE - February, 2014

Change the Weather History Date:

Tuesday, February 11, 2014

  Actual Average (KFDW) Record (KFDW)
Temperature  
Mean Temperature 34 °F -  
Max Temperature 35 °F 54 °F 71 °F (2017)
Min Temperature 32 °F 29 °F 26 °F (2016)
Degree Days  
Heating Degree Days 32    
Moisture  
Dew Point 34 °F    
Average Humidity 100    
Maximum Humidity 100    
Minimum Humidity 100    
Precipitation  
Precipitation 0.36 in - - ()
Sea Level Pressure  
Sea Level Pressure 30.29 in    
Wind  
Wind Speed 7 mph (NE)    
Max Wind Speed 13 mph    
Max Gust Speed -    
Visibility 4 miles    
Events Rain , Snow    
Averages and records for this station are not official NWS values.
T = Trace of Precipitation, MM = Missing Value Source: NWS Daily Summary

Daily Weather History Graph

Daily Weather History Graph

Search for Another Location

Airport or City:

Trip Planner

Search our weather history database for the weather conditions in past years. The results will help you decide how hot, cold, wet, or windy it might be!

Date:

Astronomy

Feb. 11, 2014 Rise Set
Actual Time 7:15 AM EST 6:06 PM EST
Civil Twilight 6:49 AM EST 6:32 PM EST
Nautical Twilight 6:20 AM EST 7:01 PM EST
Astronomical Twilight 5:50 AM EST 7:31 PM EST
Moon 3:29 PM EST (2/11) 4:48 AM EST (2/11)
Length of Visible Light 11h 42m
Length of Day
10h 50m
Waxing Gibbous, 90% of the Moon is Illuminated
Feb 11
Waxing Gibbous
Feb 14
Full
Feb 22
Last Quarter
Mar 1
New
Mar 8
First Quarter

Hourly Weather History & Observations

Time (EST) Temp. Windchill Dew Point Humidity Pressure Visibility Wind Dir Wind Speed Gust Speed Precip Events Conditions
12:15 AM 35.6 °F 28.6 °F 35.6 °F 100% 30.22 in 10.0 mi ENE 9.2 mph - N/A   Overcast
12:35 AM 35.6 °F 29.9 °F 35.6 °F 100% 30.22 in 10.0 mi NE 6.9 mph - N/A   Overcast
12:55 AM 35.6 °F 29.2 °F 35.6 °F 100% 30.22 in 10.0 mi NE 8.1 mph - N/A   Overcast
1:15 AM 35.6 °F 30.7 °F 35.6 °F 100% 30.21 in 10.0 mi NE 5.8 mph - N/A   Overcast
1:35 AM 35.6 °F 29.9 °F 35.6 °F 100% 30.21 in 10.0 mi NE 6.9 mph - N/A   Light Drizzle
1:55 AM 35.6 °F 29.2 °F 35.6 °F 100% 30.21 in 7.0 mi NE 8.1 mph - N/A Rain Light Rain
2:15 AM 35.6 °F 29.2 °F 35.6 °F 100% 30.20 in 7.0 mi NE 8.1 mph - N/A   Light Drizzle
2:35 AM 35.6 °F 29.9 °F 35.6 °F 100% 30.21 in 7.0 mi NE 6.9 mph - N/A   Light Drizzle
2:55 AM 35.6 °F 30.7 °F 35.6 °F 100% 30.21 in 5.0 mi NE 5.8 mph - N/A Rain Light Rain
3:15 AM 35.6 °F 30.7 °F 35.6 °F 100% 30.21 in 7.0 mi ENE 5.8 mph - 0.01 in Rain Light Rain
3:35 AM 35.6 °F 30.7 °F 35.6 °F 100% 30.22 in 7.0 mi NE 5.8 mph - 0.01 in Rain Light Rain
3:55 AM 35.6 °F 30.7 °F 35.6 °F 100% 30.23 in 5.0 mi NE 5.8 mph - 0.02 in Rain Rain
4:15 AM 35.6 °F 32.8 °F 35.6 °F 100% 30.23 in 5.0 mi NE 3.5 mph - 0.01 in Rain Light Rain
4:35 AM 33.8 °F - 33.8 °F 100% 30.23 in 3.0 mi Calm Calm - 0.02 in Snow Light Snow
4:55 AM 33.8 °F 29.6 °F 33.8 °F 100% 30.23 in 3.0 mi ENE 4.6 mph - 0.03 in Snow Light Snow
5:15 AM 33.8 °F 30.8 °F 33.8 °F 100% 30.23 in 2.0 mi ENE 3.5 mph - 0.01 in Snow Light Snow
5:35 AM 33.8 °F 29.6 °F 33.8 °F 100% 30.24 in 2.0 mi NE 4.6 mph - 0.01 in Snow Light Snow
5:55 AM 33.8 °F 29.6 °F 33.8 °F 100% 30.23 in 2.0 mi ENE 4.6 mph - 0.01 in Snow Light Snow
6:15 AM 33.8 °F 28.6 °F 33.8 °F 100% 30.24 in 2.0 mi NE 5.8 mph - N/A Snow Light Snow
6:35 AM 33.8 °F 27.0 °F 33.8 °F 100% 30.25 in 3.0 mi NE 8.1 mph - N/A Snow Light Snow
6:55 AM 33.8 °F 27.0 °F 33.8 °F 100% 30.25 in 2.5 mi NE 8.1 mph - N/A Snow Light Snow
7:15 AM 33.8 °F 28.6 °F 33.8 °F 100% 30.26 in 2.5 mi ENE 5.8 mph - N/A Snow Light Snow
7:35 AM 33.8 °F 30.8 °F 33.8 °F 100% 30.27 in 1.5 mi ENE 3.5 mph - N/A Snow Light Snow
7:55 AM 33.8 °F 30.8 °F 33.8 °F 100% 30.29 in 1.2 mi NE 3.5 mph - N/A Snow Light Snow
8:15 AM 33.8 °F - 33.8 °F 100% 30.29 in 0.8 mi Calm Calm - N/A Snow Light Snow
8:35 AM 33.8 °F 29.6 °F 33.8 °F 100% 30.29 in 1.2 mi NE 4.6 mph - N/A Snow Light Snow
8:55 AM 33.8 °F 29.6 °F 33.8 °F 100% 30.29 in 2.0 mi NE 4.6 mph - N/A Snow Light Snow
9:15 AM 33.8 °F 28.6 °F 33.8 °F 100% 30.29 in 1.0 mi NE 5.8 mph - N/A Snow Light Snow
9:35 AM 33.8 °F 28.6 °F 33.8 °F 100% 30.30 in 1.0 mi ENE 5.8 mph - N/A Snow Light Snow
9:55 AM 33.8 °F 27.0 °F 33.8 °F 100% 30.31 in 3.0 mi NE 8.1 mph - N/A Snow Light Snow
10:15 AM 33.8 °F 27.0 °F 33.8 °F 100% 30.32 in 2.0 mi NE 8.1 mph - N/A Snow Light Snow
10:35 AM 33.8 °F 27.7 °F 33.8 °F 100% 30.32 in 1.5 mi NE 6.9 mph - N/A Snow Light Snow
10:55 AM 33.8 °F 27.0 °F 33.8 °F 100% 30.32 in 1.2 mi NE 8.1 mph - N/A Snow Light Snow
11:15 AM 33.8 °F 27.0 °F 33.8 °F 100% 30.31 in 1.8 mi NNE 8.1 mph - N/A Snow Light Snow
11:35 AM 33.8 °F 27.7 °F 33.8 °F 100% 30.31 in 2.0 mi NNE 6.9 mph - N/A Snow Light Snow
11:55 AM 33.8 °F 26.4 °F 33.8 °F 100% 30.31 in 1.8 mi NNE 9.2 mph - N/A Snow Light Snow
12:15 PM 33.8 °F 24.8 °F 33.8 °F 100% 30.32 in 2.5 mi NNE 12.7 mph - 0.03 in Snow Light Snow
12:35 PM 33.8 °F 26.4 °F 33.8 °F 100% 30.31 in 2.5 mi NNE 9.2 mph - 0.06 in Snow Light Snow
12:55 PM 33.8 °F 26.4 °F 33.8 °F 100% 30.31 in 1.5 mi NNE 9.2 mph - 0.10 in Snow Light Snow
1:15 PM 33.8 °F 25.8 °F 33.8 °F 100% 30.30 in 1.5 mi NNE 10.4 mph - 0.03 in Snow Light Snow
1:35 PM 33.8 °F 26.4 °F 33.8 °F 100% 30.29 in 1.8 mi NNE 9.2 mph - 0.05 in Snow Light Snow
1:55 PM 33.8 °F 25.8 °F 33.8 °F 100% 30.29 in 2.0 mi NNE 10.4 mph - 0.07 in Snow Light Snow
2:15 PM 33.8 °F 25.8 °F 33.8 °F 100% 30.28 in 3.0 mi NNE 10.4 mph - 0.02 in Snow Light Snow
2:35 PM 33.8 °F 25.3 °F 33.8 °F 100% 30.29 in 3.0 mi NNE 11.5 mph - 0.05 in Snow Light Snow
2:55 PM 33.8 °F 25.8 °F 33.8 °F 100% 30.29 in 4.0 mi NNE 10.4 mph - 0.07 in Snow Light Snow
3:15 PM 33.8 °F 25.8 °F 33.8 °F 100% 30.29 in 4.0 mi NE 10.4 mph - 0.02 in Snow Light Snow
3:35 PM 33.8 °F 27.0 °F 33.8 °F 100% 30.28 in 4.0 mi NE 8.1 mph - 0.03 in Snow Light Snow
3:55 PM 33.8 °F 27.7 °F 33.8 °F 100% 30.29 in 4.0 mi NE 6.9 mph - 0.04 in Snow Light Snow
4:15 PM 33.8 °F 25.8 °F 33.8 °F 100% 30.30 in 5.0 mi NNE 10.4 mph - 0.01 in Snow Light Snow
4:35 PM 33.8 °F 27.0 °F 33.8 °F 100% 30.30 in 4.0 mi NE 8.1 mph - 0.01 in Snow Light Snow
4:55 PM 33.8 °F 27.7 °F 33.8 °F 100% 30.29 in 4.0 mi NE 6.9 mph - 0.01 in   Overcast
5:15 PM 33.8 °F 27.7 °F 33.8 °F 100% 30.30 in 4.0 mi NNE 6.9 mph - N/A   Overcast
5:35 PM 33.8 °F 27.7 °F 33.8 °F 100% 30.31 in 3.0 mi NE 6.9 mph - N/A Snow Light Snow
5:55 PM 33.8 °F 28.6 °F 33.8 °F 100% 30.31 in 5.0 mi NE 5.8 mph - 0.01 in Rain Light Rain
6:15 PM 33.8 °F 28.6 °F 33.8 °F 100% 30.32 in 5.0 mi NNE 5.8 mph - N/A   Overcast
6:35 PM 33.8 °F 27.7 °F 33.8 °F 100% 30.32 in 5.0 mi NE 6.9 mph - N/A   Overcast
6:55 PM 33.8 °F 28.6 °F 33.8 °F 100% 30.34 in 5.0 mi NE 5.8 mph - N/A   Overcast
7:15 PM 33.8 °F 28.6 °F 33.8 °F 100% 30.34 in 5.0 mi NE 5.8 mph - N/A   Overcast
7:35 PM 33.8 °F 30.8 °F 33.8 °F 100% 30.34 in 5.0 mi ENE 3.5 mph - N/A   Overcast
7:55 PM 33.8 °F 27.7 °F 33.8 °F 100% 30.34 in 5.0 mi ENE 6.9 mph - N/A   Overcast
8:15 PM 33.8 °F 28.6 °F 33.8 °F 100% 30.35 in 4.0 mi NE 5.8 mph - N/A   Overcast
8:35 PM 33.8 °F 28.6 °F 33.8 °F 100% 30.35 in 5.0 mi NE 5.8 mph - N/A   Overcast
8:55 PM 33.8 °F 28.6 °F 33.8 °F 100% 30.34 in 5.0 mi ENE 5.8 mph - N/A   Overcast
9:15 PM 33.8 °F 27.7 °F 33.8 °F 100% 30.35 in 5.0 mi NE 6.9 mph - N/A   Overcast
9:35 PM 33.8 °F 29.6 °F 33.8 °F 100% 30.35 in 5.0 mi NE 4.6 mph - N/A   Overcast
9:55 PM 33.8 °F 29.6 °F 33.8 °F 100% 30.35 in 7.0 mi ENE 4.6 mph - N/A   Overcast
10:15 PM 32.0 °F 25.6 °F 32.0 °F 100% 30.35 in 10.0 mi ENE 6.9 mph - N/A   Overcast
10:35 PM 32.0 °F 26.4 °F 32.0 °F 100% 30.36 in 7.0 mi ENE 5.8 mph - N/A   Overcast
10:55 PM 32.0 °F 25.6 °F 32.0 °F 100% 30.35 in 7.0 mi ENE 6.9 mph - N/A   Overcast
11:15 PM 32.0 °F 25.6 °F 32.0 °F 100% 30.35 in 7.0 mi ENE 6.9 mph - N/A   Overcast
11:35 PM 32.0 °F 25.6 °F 32.0 °F 100% 30.35 in 7.0 mi ENE 6.9 mph - N/A   Overcast
11:55 PM 32.0 °F 25.6 °F 32.0 °F 100% 30.34 in 7.0 mi NE 6.9 mph - N/A   Overcast